sensor_id;sensor_type;location;lat;lon;timestamp;pressure;altitude;pressure_sealevel;temperature;humidity
14204;BME280;7185;51.854;6.622;2023-07-13T00:00:07;101084.09;;;21.77;59.36
14204;BME280;7185;51.854;6.622;2023-07-13T00:02:40;101083.59;;;21.86;59.42
14204;BME280;7185;51.854;6.622;2023-07-13T00:05:13;101077.75;;;21.63;59.45
14204;BME280;7185;51.854;6.622;2023-07-13T00:07:46;101082.22;;;21.79;59.40
14204;BME280;7185;51.854;6.622;2023-07-13T00:10:18;101083.31;;;21.75;58.98
14204;BME280;7185;51.854;6.622;2023-07-13T00:12:53;101084.88;;;21.79;58.98
14204;BME280;7185;51.854;6.622;2023-07-13T00:16:02;101091.34;;;21.75;58.32
14204;BME280;7185;51.854;6.622;2023-07-13T00:18:35;101088.91;;;21.86;58.07
14204;BME280;7185;51.854;6.622;2023-07-13T00:21:08;101090.22;;;21.79;58.40
14204;BME280;7185;51.854;6.622;2023-07-13T00:23:41;101090.25;;;21.63;58.70
14204;BME280;7185;51.854;6.622;2023-07-13T00:26:14;101094.50;;;21.33;59.38
14204;BME280;7185;51.854;6.622;2023-07-13T00:28:47;101096.69;;;21.59;58.63
14204;BME280;7185;51.854;6.622;2023-07-13T00:31:21;101101.00;;;21.61;57.76
14204;BME280;7185;51.854;6.622;2023-07-13T00:33:53;101107.19;;;21.78;57.68
14204;BME280;7185;51.854;6.622;2023-07-13T00:36:25;101104.06;;;21.38;58.55
14204;BME280;7185;51.854;6.622;2023-07-13T00:38:58;101103.41;;;21.66;57.25
14204;BME280;7185;51.854;6.622;2023-07-13T00:41:31;101095.28;;;21.52;58.34
14204;BME280;7185;51.854;6.622;2023-07-13T00:44:04;101103.91;;;21.57;58.22
14204;BME280;7185;51.854;6.622;2023-07-13T00:46:38;101098.22;;;21.31;57.88
14204;BME280;7185;51.854;6.622;2023-07-13T00:49:14;101094.25;;;21.54;57.87
14204;BME280;7185;51.854;6.622;2023-07-13T00:51:50;101103.72;;;21.44;57.65
14204;BME280;7185;51.854;6.622;2023-07-13T00:54:26;101104.16;;;21.36;57.05
14204;BME280;7185;51.854;6.622;2023-07-13T00:57:01;101105.97;;;21.36;57.94
14204;BME280;7185;51.854;6.622;2023-07-13T00:59:36;101096.84;;;21.56;57.56
14204;BME280;7185;51.854;6.622;2023-07-13T01:02:12;101113.38;;;21.30;57.99
14204;BME280;7185;51.854;6.622;2023-07-13T01:04:45;101117.66;;;21.33;57.87
14204;BME280;7185;51.854;6.622;2023-07-13T01:07:28;101104.59;;;21.28;58.10
14204;BME280;7185;51.854;6.622;2023-07-13T01:10:02;101113.53;;;21.27;58.03
14204;BME280;7185;51.854;6.622;2023-07-13T01:12:34;101111.63;;;21.13;58.48
14204;BME280;7185;51.854;6.622;2023-07-13T01:15:34;101115.84;;;21.17;57.97
14204;BME280;7185;51.854;6.622;2023-07-13T01:21:14;101108.34;;;21.08;58.50
14204;BME280;7185;51.854;6.622;2023-07-13T01:23:58;101110.59;;;20.82;58.35
14204;BME280;7185;51.854;6.622;2023-07-13T01:26:34;101112.25;;;20.85;58.97
14204;BME280;7185;51.854;6.622;2023-07-13T01:29:06;101111.91;;;20.91;58.21
14204;BME280;7185;51.854;6.622;2023-07-13T01:31:39;101113.69;;;20.75;58.32
14204;BME280;7185;51.854;6.622;2023-07-13T01:34:11;101110.28;;;20.71;58.02
14204;BME280;7185;51.854;6.622;2023-07-13T01:36:46;101105.53;;;20.78;58.36
14204;BME280;7185;51.854;6.622;2023-07-13T01:39:19;101104.28;;;20.67;58.46
14204;BME280;7185;51.854;6.622;2023-07-13T01:41:51;101106.47;;;20.77;58.62
14204;BME280;7185;51.854;6.622;2023-07-13T01:44:26;101113.75;;;20.38;59.20
14204;BME280;7185;51.854;6.622;2023-07-13T01:47:00;101110.69;;;20.63;58.25
14204;BME280;7185;51.854;6.622;2023-07-13T01:49:34;101108.19;;;20.60;58.56
14204;BME280;7185;51.854;6.622;2023-07-13T01:52:09;101111.03;;;20.75;58.24
14204;BME280;7185;51.854;6.622;2023-07-13T01:54:43;101105.88;;;20.88;57.82
14204;BME280;7185;51.854;6.622;2023-07-13T01:57:25;101119.69;;;20.61;58.39
14204;BME280;7185;51.854;6.622;2023-07-13T02:00:18;101109.75;;;20.64;58.58
14204;BME280;7185;51.854;6.622;2023-07-13T02:02:52;101106.56;;;20.58;58.78
14204;BME280;7185;51.854;6.622;2023-07-13T02:05:38;101109.22;;;20.58;58.34
14204;BME280;7185;51.854;6.622;2023-07-13T02:08:14;101106.97;;;20.32;59.25
14204;BME280;7185;51.854;6.622;2023-07-13T02:10:48;101113.53;;;20.08;59.50
14204;BME280;7185;51.854;6.622;2023-07-13T02:13:20;101119.63;;;20.45;58.84
14204;BME280;7185;51.854;6.622;2023-07-13T02:15:53;101114.47;;;20.42;59.13
14204;BME280;7185;51.854;6.622;2023-07-13T02:18:25;101118.84;;;20.60;58.89
14204;BME280;7185;51.854;6.622;2023-07-13T02:20:57;101121.31;;;20.30;59.62
14204;BME280;7185;51.854;6.622;2023-07-13T02:23:35;101122.22;;;20.46;59.21
14204;BME280;7185;51.854;6.622;2023-07-13T02:26:18;101124.63;;;19.98;60.82
14204;BME280;7185;51.854;6.622;2023-07-13T02:28:57;101125.75;;;20.29;59.79
14204;BME280;7185;51.854;6.622;2023-07-13T02:31:30;101127.53;;;20.46;59.62
14204;BME280;7185;51.854;6.622;2023-07-13T02:34:04;101120.28;;;20.32;59.41
14204;BME280;7185;51.854;6.622;2023-07-13T02:36:36;101115.47;;;20.74;58.37
14204;BME280;7185;51.854;6.622;2023-07-13T02:39:11;101127.00;;;20.40;59.14
14204;BME280;7185;51.854;6.622;2023-07-13T02:41:44;101113.19;;;20.49;58.84
14204;BME280;7185;51.854;6.622;2023-07-13T02:44:17;101115.41;;;20.58;58.74
14204;BME280;7185;51.854;6.622;2023-07-13T02:46:51;101120.25;;;19.97;60.69
14204;BME280;7185;51.854;6.622;2023-07-13T02:49:23;101114.13;;;20.13;60.38
14204;BME280;7185;51.854;6.622;2023-07-13T02:51:55;101121.50;;;20.08;60.26
14204;BME280;7185;51.854;6.622;2023-07-13T02:54:35;101125.19;;;20.05;60.50
14204;BME280;7185;51.854;6.622;2023-07-13T02:57:08;101118.69;;;20.11;60.82
14204;BME280;7185;51.854;6.622;2023-07-13T02:59:42;101116.66;;;20.33;59.90
14204;BME280;7185;51.854;6.622;2023-07-13T03:02:17;101126.53;;;20.49;59.87
14204;BME280;7185;51.854;6.622;2023-07-13T03:04:49;101128.41;;;20.12;60.54
14204;BME280;7185;51.854;6.622;2023-07-13T03:07:21;101130.44;;;20.24;60.72
14204;BME280;7185;51.854;6.622;2023-07-13T03:09:55;101127.53;;;20.11;60.87
14204;BME280;7185;51.854;6.622;2023-07-13T03:12:28;101133.78;;;19.73;nan
14204;BME280;7185;51.854;6.622;2023-07-13T03:15:04;101123.84;;;20.14;61.05
14204;BME280;7185;51.854;6.622;2023-07-13T03:17:37;101139.13;;;20.10;60.99
14204;BME280;7185;51.854;6.622;2023-07-13T03:20:10;101140.63;;;20.16;61.45
14204;BME280;7185;51.854;6.622;2023-07-13T03:22:43;101142.03;;;20.23;60.95
14204;BME280;7185;51.854;6.622;2023-07-13T03:25:17;101143.28;;;20.33;60.87
14204;BME280;7185;51.854;6.622;2023-07-13T03:27:58;101150.66;;;19.72;63.05
14204;BME280;7185;51.854;6.622;2023-07-13T03:30:36;101151.97;;;19.83;62.54
14204;BME280;7185;51.854;6.622;2023-07-13T03:33:08;101155.78;;;19.58;62.85
14204;BME280;7185;51.854;6.622;2023-07-13T03:35:40;101156.59;;;20.16;61.71
14204;BME280;7185;51.854;6.622;2023-07-13T03:38:22;101159.38;;;19.95;62.25
14204;BME280;7185;51.854;6.622;2023-07-13T03:40:56;101163.38;;;20.04;63.21
14204;BME280;7185;51.854;6.622;2023-07-13T03:43:28;101151.91;;;20.38;61.47
14204;BME280;7185;51.854;6.622;2023-07-13T03:46:01;101152.50;;;20.09;61.99
14204;BME280;7185;51.854;6.622;2023-07-13T03:48:37;101157.91;;;20.07;61.79
14204;BME280;7185;51.854;6.622;2023-07-13T03:51:17;101151.31;;;19.97;62.61
14204;BME280;7185;51.854;6.622;2023-07-13T03:53:50;101153.81;;;19.81;63.26
14204;BME280;7185;51.854;6.622;2023-07-13T03:56:24;101160.88;;;19.82;63.44
14204;BME280;7185;51.854;6.622;2023-07-13T03:58:57;101166.25;;;19.99;62.95
14204;BME280;7185;51.854;6.622;2023-07-13T04:01:30;101158.66;;;19.92;63.06
14204;BME280;7185;51.854;6.622;2023-07-13T04:04:05;101167.84;;;20.03;62.58
14204;BME280;7185;51.854;6.622;2023-07-13T04:06:38;101170.44;;;20.05;63.06
14204;BME280;7185;51.854;6.622;2023-07-13T04:09:13;101169.09;;;20.14;62.83
14204;BME280;7185;51.854;6.622;2023-07-13T04:11:53;101174.63;;;19.92;63.47
14204;BME280;7185;51.854;6.622;2023-07-13T04:14:25;101174.19;;;20.01;63.28
14204;BME280;7185;51.854;6.622;2023-07-13T04:16:57;101173.53;;;20.32;62.66
14204;BME280;7185;51.854;6.622;2023-07-13T04:19:32;101169.13;;;20.49;61.71
14204;BME280;7185;51.854;6.622;2023-07-13T04:22:05;101169.09;;;20.14;63.24
14204;BME280;7185;51.854;6.622;2023-07-13T04:24:43;101172.16;;;20.06;63.85
14204;BME280;7185;51.854;6.622;2023-07-13T04:27:19;101170.59;;;19.83;63.98
14204;BME280;7185;51.854;6.622;2023-07-13T04:29:54;101165.22;;;19.84;64.54
14204;BME280;7185;51.854;6.622;2023-07-13T04:32:26;101174.91;;;20.04;64.05
14204;BME280;7185;51.854;6.622;2023-07-13T04:34:58;101172.47;;;20.00;64.47
14204;BME280;7185;51.854;6.622;2023-07-13T04:37:30;101178.50;;;20.03;64.65
14204;BME280;7185;51.854;6.622;2023-07-13T04:40:03;101187.91;;;20.11;64.06
14204;BME280;7185;51.854;6.622;2023-07-13T04:42:38;101182.84;;;19.87;65.56
14204;BME280;7185;51.854;6.622;2023-07-13T04:45:13;101199.66;;;19.68;65.63
14204;BME280;7185;51.854;6.622;2023-07-13T04:47:47;101191.66;;;19.68;66.50
14204;BME280;7185;51.854;6.622;2023-07-13T04:50:19;101187.44;;;20.20;64.57
14204;BME280;7185;51.854;6.622;2023-07-13T04:52:53;101193.47;;;19.87;65.76
14204;BME280;7185;51.854;6.622;2023-07-13T04:55:25;101197.81;;;20.44;64.11
14204;BME280;7185;51.854;6.622;2023-07-13T04:58:02;101202.38;;;19.86;65.78
14204;BME280;7185;51.854;6.622;2023-07-13T05:00:35;101193.56;;;20.22;64.46
14204;BME280;7185;51.854;6.622;2023-07-13T05:03:07;101200.34;;;20.10;64.56
14204;BME280;7185;51.854;6.622;2023-07-13T05:05:38;101206.81;;;20.59;63.43
14204;BME280;7185;51.854;6.622;2023-07-13T05:08:13;101202.53;;;20.91;62.33
14204;BME280;7185;51.854;6.622;2023-07-13T05:10:45;101209.44;;;20.95;62.86
14204;BME280;7185;51.854;6.622;2023-07-13T05:13:19;101204.25;;;20.92;61.85
14204;BME280;7185;51.854;6.622;2023-07-13T05:16:00;101207.44;;;21.16;61.94
14204;BME280;7185;51.854;6.622;2023-07-13T05:18:32;101212.25;;;20.92;62.05
14204;BME280;7185;51.854;6.622;2023-07-13T05:21:06;101216.91;;;21.22;61.55
14204;BME280;7185;51.854;6.622;2023-07-13T05:23:39;101209.88;;;21.21;61.88
14204;BME280;7185;51.854;6.622;2023-07-13T05:26:12;101215.41;;;21.34;61.98
14204;BME280;7185;51.854;6.622;2023-07-13T05:28:46;101221.38;;;21.22;62.39
14204;BME280;7185;51.854;6.622;2023-07-13T05:31:18;101225.25;;;21.49;61.13
14204;BME280;7185;51.854;6.622;2023-07-13T05:33:50;101217.44;;;20.95;62.50
14204;BME280;7185;51.854;6.622;2023-07-13T05:36:22;101222.94;;;21.26;61.72
14204;BME280;7185;51.854;6.622;2023-07-13T05:38:56;101236.75;;;21.34;62.24
14204;BME280;7185;51.854;6.622;2023-07-13T05:41:28;101229.34;;;21.06;63.03
14204;BME280;7185;51.854;6.622;2023-07-13T05:44:02;101233.34;;;20.97;63.97
14204;BME280;7185;51.854;6.622;2023-07-13T05:46:34;101232.88;;;21.40;62.56
14204;BME280;7185;51.854;6.622;2023-07-13T05:49:05;101238.25;;;21.22;62.99
14204;BME280;7185;51.854;6.622;2023-07-13T05:51:37;101241.34;;;20.97;63.80
14204;BME280;7185;51.854;6.622;2023-07-13T05:54:11;101245.50;;;21.36;62.80
14204;BME280;7185;51.854;6.622;2023-07-13T05:56:43;101248.22;;;21.52;62.40
14204;BME280;7185;51.854;6.622;2023-07-13T05:59:18;101241.41;;;21.13;63.16
14204;BME280;7185;51.854;6.622;2023-07-13T06:01:50;101244.72;;;21.00;63.64
14204;BME280;7185;51.854;6.622;2023-07-13T06:04:23;101248.81;;;21.41;62.88
14204;BME280;7185;51.854;6.622;2023-07-13T06:06:59;101249.25;;;21.16;63.69
14204;BME280;7185;51.854;6.622;2023-07-13T06:09:31;101257.78;;;21.56;63.38
14204;BME280;7185;51.854;6.622;2023-07-13T06:12:04;101258.28;;;21.96;61.83
14204;BME280;7185;51.854;6.622;2023-07-13T06:14:42;101269.25;;;22.08;61.07
14204;BME280;7185;51.854;6.622;2023-07-13T06:17:14;101269.38;;;21.73;62.46
14204;BME280;7185;51.854;6.622;2023-07-13T06:19:45;101278.66;;;21.65;62.43
14204;BME280;7185;51.854;6.622;2023-07-13T06:22:17;101277.94;;;21.95;62.00
14204;BME280;7185;51.854;6.622;2023-07-13T06:24:51;101284.88;;;21.82;62.94
14204;BME280;7185;51.854;6.622;2023-07-13T06:27:25;101283.53;;;21.91;62.61
14204;BME280;7185;51.854;6.622;2023-07-13T06:29:59;101286.72;;;21.97;62.16
14204;BME280;7185;51.854;6.622;2023-07-13T06:32:31;101274.66;;;21.90;63.06
14204;BME280;7185;51.854;6.622;2023-07-13T06:35:04;101284.03;;;22.13;61.97
14204;BME280;7185;51.854;6.622;2023-07-13T06:37:44;101293.31;;;21.74;63.50
14204;BME280;7185;51.854;6.622;2023-07-13T06:40:17;101288.97;;;22.05;62.63
14204;BME280;7185;51.854;6.622;2023-07-13T06:42:50;101285.16;;;22.25;62.13
14204;BME280;7185;51.854;6.622;2023-07-13T06:45:25;101287.69;;;22.44;61.86
14204;BME280;7185;51.854;6.622;2023-07-13T06:47:57;101295.75;;;21.79;64.07
14204;BME280;7185;51.854;6.622;2023-07-13T06:50:34;101296.78;;;22.24;62.67
14204;BME280;7185;51.854;6.622;2023-07-13T06:53:06;101305.34;;;22.15;62.35
14204;BME280;7185;51.854;6.622;2023-07-13T06:55:39;101311.31;;;21.71;64.70
14204;BME280;7185;51.854;6.622;2023-07-13T06:58:11;101308.19;;;21.62;64.65
14204;BME280;7185;51.854;6.622;2023-07-13T07:00:45;101317.69;;;21.84;64.02
14204;BME280;7185;51.854;6.622;2023-07-13T07:03:19;101313.19;;;21.69;64.93
14204;BME280;7185;51.854;6.622;2023-07-13T07:05:51;101316.91;;;21.82;64.46
14204;BME280;7185;51.854;6.622;2023-07-13T07:08:23;101312.56;;;21.63;65.06
14204;BME280;7185;51.854;6.622;2023-07-13T07:10:55;101309.91;;;22.13;63.81
14204;BME280;7185;51.854;6.622;2023-07-13T07:13:27;101313.25;;;22.01;64.72
14204;BME280;7185;51.854;6.622;2023-07-13T07:16:02;101316.63;;;22.20;64.19
14204;BME280;7185;51.854;6.622;2023-07-13T07:18:35;101320.41;;;22.16;63.99
14204;BME280;7185;51.854;6.622;2023-07-13T07:21:07;101324.00;;;21.99;64.31
14204;BME280;7185;51.854;6.622;2023-07-13T07:23:39;101327.03;;;21.59;66.35
14204;BME280;7185;51.854;6.622;2023-07-13T07:26:11;101326.81;;;21.80;65.66
14204;BME280;7185;51.854;6.622;2023-07-13T07:28:43;101329.22;;;21.51;67.35
14204;BME280;7185;51.854;6.622;2023-07-13T07:31:16;101321.41;;;21.97;65.60
14204;BME280;7185;51.854;6.622;2023-07-13T07:33:48;101320.88;;;22.40;64.39
14204;BME280;7185;51.854;6.622;2023-07-13T07:36:22;101322.81;;;22.69;63.24
14204;BME280;7185;51.854;6.622;2023-07-13T07:38:53;101320.09;;;22.38;63.91
14204;BME280;7185;51.854;6.622;2023-07-13T07:41:25;101323.00;;;22.50;63.89
14204;BME280;7185;51.854;6.622;2023-07-13T07:43:57;101327.28;;;22.20;64.85
14204;BME280;7185;51.854;6.622;2023-07-13T07:46:30;101324.25;;;22.44;63.62
14204;BME280;7185;51.854;6.622;2023-07-13T07:49:02;101316.41;;;22.71;62.93
14204;BME280;7185;51.854;6.622;2023-07-13T07:51:34;101320.25;;;22.67;62.91
14204;BME280;7185;51.854;6.622;2023-07-13T07:54:06;101318.34;;;22.53;63.26
14204;BME280;7185;51.854;6.622;2023-07-13T07:56:38;101322.22;;;22.64;63.22
14204;BME280;7185;51.854;6.622;2023-07-13T07:59:10;101319.34;;;22.67;62.22
14204;BME280;7185;51.854;6.622;2023-07-13T08:01:43;101322.69;;;22.86;61.31
14204;BME280;7185;51.854;6.622;2023-07-13T08:04:16;101326.13;;;22.88;61.79
14204;BME280;7185;51.854;6.622;2023-07-13T08:06:48;101332.84;;;22.49;62.82
14204;BME280;7185;51.854;6.622;2023-07-13T08:09:20;101315.84;;;22.97;61.01
14204;BME280;7185;51.854;6.622;2023-07-13T08:11:52;101327.72;;;22.60;62.24
14204;BME280;7185;51.854;6.622;2023-07-13T08:14:25;101328.44;;;22.32;64.38
14204;BME280;7185;51.854;6.622;2023-07-13T08:16:58;101335.91;;;22.25;63.56
14204;BME280;7185;51.854;6.622;2023-07-13T08:19:30;101329.72;;;22.73;61.98
14204;BME280;7185;51.854;6.622;2023-07-13T08:22:02;101322.28;;;22.78;62.35
14204;BME280;7185;51.854;6.622;2023-07-13T08:24:34;101327.44;;;22.17;64.04
14204;BME280;7185;51.854;6.622;2023-07-13T08:27:06;101329.03;;;22.21;63.30
14204;BME280;7185;51.854;6.622;2023-07-13T08:29:38;101328.69;;;22.27;63.50
14204;BME280;7185;51.854;6.622;2023-07-13T08:32:13;101333.19;;;22.43;63.72
14204;BME280;7185;51.854;6.622;2023-07-13T08:34:45;101333.75;;;22.64;63.34
14204;BME280;7185;51.854;6.622;2023-07-13T08:37:18;101338.84;;;22.69;62.31
14204;BME280;7185;51.854;6.622;2023-07-13T08:39:50;101341.28;;;22.57;63.64
14204;BME280;7185;51.854;6.622;2023-07-13T08:42:39;101336.59;;;22.13;63.56
14204;BME280;7185;51.854;6.622;2023-07-13T08:45:17;101336.59;;;22.13;63.93
14204;BME280;7185;51.854;6.622;2023-07-13T08:47:56;101333.16;;;22.27;63.70
14204;BME280;7185;51.854;6.622;2023-07-13T08:50:33;101333.19;;;22.43;64.20
14204;BME280;7185;51.854;6.622;2023-07-13T08:53:10;101325.06;;;22.28;63.52
14204;BME280;7185;51.854;6.622;2023-07-13T08:55:43;101319.66;;;22.92;62.27
14204;BME280;7185;51.854;6.622;2023-07-13T08:58:16;101321.50;;;23.06;61.33
14204;BME280;7185;51.854;6.622;2023-07-13T09:00:54;101324.94;;;23.08;61.37
14204;BME280;7185;51.854;6.622;2023-07-13T09:03:37;101320.63;;;23.22;60.61
14204;BME280;7185;51.854;6.622;2023-07-13T09:06:14;101316.16;;;23.80;58.77
14204;BME280;7185;51.854;6.622;2023-07-13T09:08:54;101315.22;;;23.96;57.90
14204;BME280;7185;51.854;6.622;2023-07-13T09:11:39;101318.41;;;24.02;58.28
14204;BME280;7185;51.854;6.622;2023-07-13T09:14:31;101306.63;;;23.62;59.09
14204;BME280;7185;51.854;6.622;2023-07-13T09:17:11;101322.97;;;24.42;57.81
14204;BME280;7185;51.854;6.622;2023-07-13T09:19:49;101315.19;;;24.79;56.99
14204;BME280;7185;51.854;6.622;2023-07-13T09:22:26;101325.38;;;25.27;55.01
14204;BME280;7185;51.854;6.622;2023-07-13T09:25:05;101320.34;;;25.23;54.11
14204;BME280;7185;51.854;6.622;2023-07-13T09:27:39;101321.94;;;25.12;55.02
14204;BME280;7185;51.854;6.622;2023-07-13T09:30:29;101325.41;;;24.60;56.14
14204;BME280;7185;51.854;6.622;2023-07-13T09:33:02;101314.84;;;25.11;54.80
14204;BME280;7185;51.854;6.622;2023-07-13T09:35:36;101315.44;;;24.76;55.33
14204;BME280;7185;51.854;6.622;2023-07-13T09:38:14;101321.25;;;24.96;55.29
14204;BME280;7185;51.854;6.622;2023-07-13T09:40:57;101319.06;;;24.75;54.90
14204;BME280;7185;51.854;6.622;2023-07-13T09:43:31;101311.41;;;25.09;55.05
14204;BME280;7185;51.854;6.622;2023-07-13T09:46:03;101316.75;;;24.96;54.40
14204;BME280;7185;51.854;6.622;2023-07-13T09:48:35;101323.22;;;24.25;56.53
14204;BME280;7185;51.854;6.622;2023-07-13T09:51:13;101308.81;;;24.95;54.27
14204;BME280;7185;51.854;6.622;2023-07-13T09:53:45;101314.22;;;25.85;54.09
14204;BME280;7185;51.854;6.622;2023-07-13T09:56:21;101309.75;;;26.23;51.78
14204;BME280;7185;51.854;6.622;2023-07-13T09:58:53;101309.81;;;25.20;53.29
14204;BME280;7185;51.854;6.622;2023-07-13T10:01:33;101311.09;;;25.91;53.25
14204;BME280;7185;51.854;6.622;2023-07-13T10:04:11;101312.75;;;26.55;50.16
14204;BME280;7185;51.854;6.622;2023-07-13T10:06:47;101311.94;;;26.42;49.87
14204;BME280;7185;51.854;6.622;2023-07-13T10:09:19;101305.69;;;26.41;50.03
14204;BME280;7185;51.854;6.622;2023-07-13T10:11:52;101312.75;;;25.55;49.80
14204;BME280;7185;51.854;6.622;2023-07-13T10:14:25;101309.81;;;25.97;49.94
14204;BME280;7185;51.854;6.622;2023-07-13T10:16:59;101308.66;;;26.25;49.78
14204;BME280;7185;51.854;6.622;2023-07-13T10:19:35;101315.03;;;26.12;50.86
14204;BME280;7185;51.854;6.622;2023-07-13T10:22:15;101311.13;;;25.53;49.58
14204;BME280;7185;51.854;6.622;2023-07-13T10:24:55;101318.19;;;25.80;48.73
14204;BME280;7185;51.854;6.622;2023-07-13T10:27:34;101307.81;;;26.49;47.45
14204;BME280;7185;51.854;6.622;2023-07-13T10:30:13;101305.31;;;26.35;48.18
14204;BME280;7185;51.854;6.622;2023-07-13T10:32:57;101313.03;;;26.39;48.44
14204;BME280;7185;51.854;6.622;2023-07-13T10:35:35;101309.34;;;26.65;46.39
14204;BME280;7185;51.854;6.622;2023-07-13T10:42:26;101314.38;;;26.69;47.31
14204;BME280;7185;51.854;6.622;2023-07-13T10:45:37;101305.19;;;26.96;44.25
14204;BME280;7185;51.854;6.622;2023-07-13T10:48:12;101302.06;;;27.02;45.81
14204;BME280;7185;51.854;6.622;2023-07-13T10:51:14;101305.78;;;26.77;45.98
14204;BME280;7185;51.854;6.622;2023-07-13T10:54:12;101324.28;;;26.45;48.15
14204;BME280;7185;51.854;6.622;2023-07-13T10:57:06;101312.94;;;26.28;51.47
14204;BME280;7185;51.854;6.622;2023-07-13T11:00:12;101322.72;;;26.29;51.33
14204;BME280;7185;51.854;6.622;2023-07-13T11:02:55;101333.84;;;25.34;51.90
14204;BME280;7185;51.854;6.622;2023-07-13T11:05:30;101338.50;;;25.32;51.45
14204;BME280;7185;51.854;6.622;2023-07-13T11:08:16;101329.69;;;25.56;50.19
14204;BME280;7185;51.854;6.622;2023-07-13T11:10:55;101331.09;;;25.74;49.76
14204;BME280;7185;51.854;6.622;2023-07-13T11:16:46;101321.34;;;26.23;47.20
14204;BME280;7185;51.854;6.622;2023-07-13T11:19:39;101328.78;;;26.20;47.68
14204;BME280;7185;51.854;6.622;2023-07-13T11:22:46;101328.22;;;25.52;48.04
14204;BME280;7185;51.854;6.622;2023-07-13T11:25:28;101336.69;;;25.71;48.46
14204;BME280;7185;51.854;6.622;2023-07-13T11:28:26;101335.72;;;25.85;48.22
14204;BME280;7185;51.854;6.622;2023-07-13T11:31:16;101345.78;;;25.30;49.67
14204;BME280;7185;51.854;6.622;2023-07-13T11:34:13;101337.00;;;25.92;50.37
14204;BME280;7185;51.854;6.622;2023-07-13T11:36:47;101337.31;;;25.88;49.59
14204;BME280;7185;51.854;6.622;2023-07-13T11:39:30;101335.88;;;26.21;48.16
14204;BME280;7185;51.854;6.622;2023-07-13T11:42:08;101341.41;;;25.81;48.62
14204;BME280;7185;51.854;6.622;2023-07-13T11:44:52;101352.28;;;25.66;48.91
14204;BME280;7185;51.854;6.622;2023-07-13T11:47:30;101371.78;;;25.42;51.32
14204;BME280;7185;51.854;6.622;2023-07-13T11:52:59;101373.88;;;24.42;57.45
14204;BME280;7185;51.854;6.622;2023-07-13T11:55:38;101376.41;;;24.31;58.83
14204;BME280;7185;51.854;6.622;2023-07-13T11:58:24;101374.50;;;23.90;61.25
14204;BME280;7185;51.854;6.622;2023-07-13T12:01:02;101369.91;;;23.77;61.69
14204;BME280;7185;51.854;6.622;2023-07-13T12:03:40;101365.53;;;23.91;60.75
14204;BME280;7185;51.854;6.622;2023-07-13T12:06:25;101367.28;;;24.06;60.66
14204;BME280;7185;51.854;6.622;2023-07-13T12:08:59;101365.72;;;24.16;60.29
14204;BME280;7185;51.854;6.622;2023-07-13T12:11:35;101364.88;;;24.01;60.39
14204;BME280;7185;51.854;6.622;2023-07-13T12:14:14;101358.56;;;24.44;59.07
14204;BME280;7185;51.854;6.622;2023-07-13T12:35:50;101402.53;;;23.39;61.76
14204;BME280;7185;51.854;6.622;2023-07-13T12:38:24;101416.94;;;23.06;62.54
14204;BME280;7185;51.854;6.622;2023-07-13T12:40:58;101414.63;;;22.68;63.67
14204;BME280;7185;51.854;6.622;2023-07-13T12:43:36;101421.34;;;22.75;64.25
14204;BME280;7185;51.854;6.622;2023-07-13T12:46:17;101405.00;;;23.28;63.84
14204;BME280;7185;51.854;6.622;2023-07-13T12:48:51;101401.19;;;23.32;63.60
14204;BME280;7185;51.854;6.622;2023-07-13T12:51:27;101393.59;;;23.54;61.55
14204;BME280;7185;51.854;6.622;2023-07-13T12:54:07;101390.78;;;23.42;62.65
14204;BME280;7185;51.854;6.622;2023-07-13T12:57:16;101398.41;;;23.33;61.07
14204;BME280;7185;51.854;6.622;2023-07-13T13:00:23;101383.47;;;23.74;61.60
14204;BME280;7185;51.854;6.622;2023-07-13T13:03:40;101373.56;;;23.76;61.31
14204;BME280;7185;51.854;6.622;2023-07-13T13:06:45;101377.72;;;23.66;61.00
14204;BME280;7185;51.854;6.622;2023-07-13T13:09:35;101380.25;;;23.83;59.99
14204;BME280;7185;51.854;6.622;2023-07-13T13:12:28;101378.84;;;24.07;59.45
14204;BME280;7185;51.854;6.622;2023-07-13T13:15:23;101383.66;;;23.57;59.66
14204;BME280;7185;51.854;6.622;2023-07-13T13:18:25;101380.47;;;23.95;60.28
14204;BME280;7185;51.854;6.622;2023-07-13T13:21:26;101380.13;;;24.43;59.63
14204;BME280;7185;51.854;6.622;2023-07-13T13:28:21;101384.38;;;24.60;57.43
14204;BME280;7185;51.854;6.622;2023-07-13T13:34:12;101378.84;;;25.30;58.16
14204;BME280;7185;51.854;6.622;2023-07-13T13:37:18;101379.47;;;25.34;56.09
14204;BME280;7185;51.854;6.622;2023-07-13T13:40:36;101382.63;;;26.05;54.52
14204;BME280;7185;51.854;6.622;2023-07-13T13:43:57;101378.53;;;26.38;53.63
14204;BME280;7185;51.854;6.622;2023-07-13T15:14:18;101372.09;;;25.38;65.29
14204;BME280;7185;51.854;6.622;2023-07-13T15:16:58;101370.31;;;25.38;64.74
14204;BME280;7185;51.854;6.622;2023-07-13T15:20:01;101389.69;;;24.89;65.13
14204;BME280;7185;51.854;6.622;2023-07-13T16:32:16;101388.44;;;24.53;77.99
14204;BME280;7185;51.854;6.622;2023-07-13T16:34:56;101396.28;;;24.56;79.05
14204;BME280;7185;51.854;6.622;2023-07-13T16:37:51;101385.75;;;24.67;75.39
14204;BME280;7185;51.854;6.622;2023-07-13T16:40:39;101387.03;;;24.18;73.32
14204;BME280;7185;51.854;6.622;2023-07-13T16:43:28;101382.00;;;24.55;74.37
14204;BME280;7185;51.854;6.622;2023-07-13T16:46:10;101379.22;;;24.57;77.74
14204;BME280;7185;51.854;6.622;2023-07-13T16:48:47;101386.91;;;24.90;74.93
14204;BME280;7185;51.854;6.622;2023-07-13T16:51:22;101386.53;;;24.55;71.49
14204;BME280;7185;51.854;6.622;2023-07-13T16:54:22;101380.44;;;24.80;72.69
14204;BME280;7185;51.854;6.622;2023-07-13T16:57:27;101379.63;;;24.50;69.10
14204;BME280;7185;51.854;6.622;2023-07-13T17:00:05;101385.63;;;24.69;70.39
14204;BME280;7185;51.854;6.622;2023-07-13T17:02:52;101390.66;;;24.88;71.37
14204;BME280;7185;51.854;6.622;2023-07-13T17:05:43;101381.69;;;24.74;67.78
14204;BME280;7185;51.854;6.622;2023-07-13T17:08:20;101384.09;;;24.92;67.76
14204;BME280;7185;51.854;6.622;2023-07-13T17:11:01;101387.94;;;25.28;68.62